Faber, Virginia
Current Conditions -  °F | °C
As of 7:55 AM on Friday 24 Oct 2014 (Local Time) from KW13 Reporting Station
Clear Clear  
Wind Chill: 45°   Ceiling: Unl
Heat Index: 48°   Visibility: 10mi
Dew Point: 39°   Wind: 6mph
Humidity: 71%   Direction: 260°W
Pressure: 30.04"   Gusts: NA
Location:  37.83°N, 78.74°W
Report Text: KW13 241155Z AUTO 26005KT 10SM CLR 09/04 A3004 RMK AO1 T00880039 10088 20060
Loading
Personal Weather Stations






























Interactive Weather Map
Tropical Storm Tracking
New forecast layout! Learn more

10-Day Weather Forecast

Advertisements
Track Severe Weather on mobile